createdAt,value
2023-03-26T00:01:33.946Z,26.17
2023-03-26T00:04:05.988Z,27.63
2023-03-26T00:06:39.288Z,27.58
2023-03-26T00:09:10.167Z,30.02
2023-03-26T00:11:37.631Z,27.33
2023-03-26T00:14:06.473Z,30.70
2023-03-26T00:16:34.326Z,29.77
2023-03-26T00:19:03.100Z,27.67
2023-03-26T00:21:31.324Z,28.17
2023-03-26T00:24:05.006Z,28.20
2023-03-26T00:26:34.157Z,26.80
2023-03-26T00:29:03.492Z,29.38
2023-03-26T00:31:31.407Z,31.90
2023-03-26T00:33:59.561Z,27.77
2023-03-26T00:36:28.545Z,35.08
2023-03-26T00:38:56.271Z,29.42
2023-03-26T00:41:26.474Z,28.73
2023-03-26T00:43:56.823Z,37.63
2023-03-26T00:46:26.050Z,25.58
2023-03-26T00:48:53.448Z,30.83
2023-03-26T00:51:22.262Z,31.55
2023-03-26T00:53:50.887Z,28.58
2023-03-26T00:56:19.226Z,26.65
2023-03-26T00:58:48.098Z,30.00
2023-03-26T01:01:21.756Z,30.63
2023-03-26T01:04:06.852Z,26.98
2023-03-26T01:06:37.537Z,27.77
2023-03-26T01:09:16.239Z,29.05
2023-03-26T01:11:44.389Z,26.17
2023-03-26T01:14:24.416Z,31.25
2023-03-26T01:17:02.816Z,27.65
2023-03-26T01:19:48.798Z,32.47
2023-03-26T01:22:22.810Z,33.35
2023-03-26T01:24:54.201Z,31.73
2023-03-26T01:27:29.589Z,28.30
2023-03-26T01:30:38.881Z,35.53
2023-03-26T01:33:14.572Z,31.85
2023-03-26T01:35:45.095Z,29.60
2023-03-26T01:38:18.385Z,33.28
2023-03-26T01:40:49.692Z,32.25
2023-03-26T01:43:31.236Z,31.38
2023-03-26T01:46:04.018Z,30.13
2023-03-26T01:48:37.329Z,27.70
2023-03-26T01:51:06.690Z,35.47
2023-03-26T01:53:37.613Z,30.70
2023-03-26T01:56:19.658Z,30.05
2023-03-26T01:59:04.947Z,33.55
2023-03-26T02:04:30.863Z,37.45
2023-03-26T02:07:09.441Z,41.47
2023-03-26T02:09:46.195Z,41.53
2023-03-26T02:12:18.201Z,37.50
2023-03-26T02:14:46.301Z,43.53
2023-03-26T02:17:33.637Z,41.10
2023-03-26T02:20:11.024Z,43.85
2023-03-26T02:22:46.021Z,43.13
2023-03-26T02:25:19.502Z,41.78
2023-03-26T02:27:49.800Z,38.85
2023-03-26T02:30:20.742Z,37.22
2023-03-26T02:32:52.453Z,42.17
2023-03-26T02:35:22.974Z,39.58
2023-03-26T02:40:22.983Z,40.83
2023-03-26T02:42:51.488Z,43.08
2023-03-26T02:45:18.737Z,44.92
2023-03-26T02:48:06.367Z,42.28
2023-03-26T02:51:06.833Z,54.72
2023-03-26T02:53:37.716Z,40.50
2023-03-26T02:56:28.692Z,46.33
2023-03-26T02:59:18.701Z,80.32
2023-03-26T03:01:50.492Z,102.88
2023-03-26T03:04:19.695Z,89.57
2023-03-26T03:06:53.189Z,54.88
2023-03-26T03:09:21.150Z,51.65
2023-03-26T03:12:17.489Z,46.08
2023-03-26T03:14:44.566Z,53.90
2023-03-26T03:17:11.826Z,47.25
2023-03-26T03:19:38.981Z,39.42
2023-03-26T03:22:06.390Z,33.08
2023-03-26T03:24:34.519Z,30.65
2023-03-26T03:27:02.138Z,34.25
2023-03-26T03:29:39.426Z,46.25
2023-03-26T03:32:42.072Z,43.83
2023-03-26T03:35:11.707Z,30.08
2023-03-26T03:37:40.632Z,26.40
2023-03-26T03:40:12.034Z,44.08
2023-03-26T03:42:39.756Z,34.05
2023-03-26T03:45:08.898Z,31.27
2023-03-26T03:47:59.191Z,27.75
2023-03-26T03:50:42.077Z,28.40
2023-03-26T03:53:29.712Z,30.10
2023-03-26T03:56:02.157Z,23.13
2023-03-26T03:58:58.499Z,25.05
2023-03-26T04:01:32.227Z,28.27
2023-03-26T04:04:12.992Z,19.30
2023-03-26T04:06:52.587Z,22.40
2023-03-26T04:09:20.985Z,22.13
2023-03-26T04:11:50.891Z,25.40
2023-03-26T04:14:41.574Z,20.08
2023-03-26T04:17:22.024Z,20.73
2023-03-26T04:19:53.211Z,24.55
2023-03-26T04:22:21.695Z,25.15
2023-03-26T04:24:54.916Z,23.73
2023-03-26T04:28:06.587Z,22.23
2023-03-26T04:30:46.619Z,19.27
2023-03-26T04:33:35.721Z,20.48
2023-03-26T04:36:05.686Z,24.20
2023-03-26T04:38:42.295Z,27.27
2023-03-26T04:41:13.619Z,23.95
2023-03-26T04:44:02.202Z,18.30
2023-03-26T04:46:43.937Z,21.90
2023-03-26T04:49:22.723Z,18.48
2023-03-26T04:51:50.251Z,21.95
2023-03-26T04:54:56.650Z,21.15
2023-03-26T04:57:30.846Z,20.17
2023-03-26T05:00:20.579Z,18.67
2023-03-26T05:02:56.223Z,21.88
2023-03-26T05:05:26.358Z,18.83
2023-03-26T05:07:54.956Z,18.50
2023-03-26T05:10:22.963Z,18.13
2023-03-26T05:12:57.992Z,19.00
2023-03-26T05:15:33.579Z,19.20
2023-03-26T05:18:13.886Z,21.55
2023-03-26T05:20:43.955Z,26.52
2023-03-26T05:23:12.595Z,18.05
2023-03-26T05:25:43.020Z,22.50
2023-03-26T05:28:19.342Z,22.50
2023-03-26T05:31:16.463Z,16.27
2023-03-26T05:33:47.131Z,19.42
2023-03-26T05:36:15.503Z,34.00
2023-03-26T05:38:54.997Z,22.27
2023-03-26T05:41:42.102Z,21.70
2023-03-26T05:44:09.569Z,17.52
2023-03-26T05:46:36.978Z,21.90
2023-03-26T05:49:04.274Z,23.95
2023-03-26T05:51:34.639Z,20.10
2023-03-26T05:54:22.089Z,28.30
2023-03-26T05:57:08.190Z,25.55
2023-03-26T05:59:54.367Z,21.70
2023-03-26T06:02:42.363Z,20.38
2023-03-26T06:05:32.680Z,32.50
2023-03-26T06:08:27.384Z,29.92
2023-03-26T06:11:07.458Z,30.35
2023-03-26T06:13:36.510Z,22.33
2023-03-26T06:16:03.930Z,22.17
2023-03-26T06:18:34.010Z,26.35
2023-03-26T06:21:20.072Z,30.00
2023-03-26T06:23:55.904Z,26.92
2023-03-26T06:26:43.582Z,21.10
2023-03-26T06:29:29.481Z,22.50
2023-03-26T06:32:16.231Z,22.85
2023-03-26T06:34:56.257Z,25.15
2023-03-26T06:37:23.632Z,23.50
2023-03-26T06:39:56.278Z,25.45
2023-03-26T06:43:09.113Z,23.30
2023-03-26T06:45:56.191Z,21.52
2023-03-26T06:48:39.686Z,24.52
2023-03-26T06:51:33.321Z,23.08
2023-03-26T06:54:09.866Z,21.25
2023-03-26T06:56:49.877Z,19.23
2023-03-26T06:59:36.012Z,21.13
2023-03-26T07:02:21.977Z,23.30
2023-03-26T07:05:08.549Z,21.00
2023-03-26T07:07:54.179Z,29.65
2023-03-26T07:10:57.044Z,21.98
2023-03-26T07:13:45.341Z,24.20
2023-03-26T07:16:31.266Z,18.63
2023-03-26T07:19:04.091Z,24.73
2023-03-26T07:21:36.178Z,27.08
2023-03-26T07:27:25.599Z,18.65
2023-03-26T07:30:15.156Z,20.55
2023-03-26T07:33:18.640Z,21.20
2023-03-26T07:36:28.264Z,18.90
2023-03-26T07:39:45.065Z,19.52
2023-03-26T07:42:57.869Z,20.70
2023-03-26T07:45:45.297Z,23.00
2023-03-26T07:48:30.411Z,24.35
2023-03-26T07:51:18.818Z,15.85
2023-03-26T07:53:57.205Z,20.33
2023-03-26T07:57:14.768Z,20.65
2023-03-26T08:00:10.323Z,22.73
2023-03-26T08:02:53.470Z,16.42
2023-03-26T08:06:01.235Z,14.88
2023-03-26T08:09:09.657Z,23.77
2023-03-26T08:11:49.348Z,22.98
2023-03-26T08:14:44.418Z,19.92
2023-03-26T08:17:35.840Z,19.58
2023-03-26T08:20:24.036Z,17.60
2023-03-26T08:23:02.587Z,19.65
2023-03-26T08:25:49.006Z,27.23
2023-03-26T08:28:19.461Z,24.83
2023-03-26T08:30:47.178Z,21.88
2023-03-26T08:33:20.773Z,18.35
2023-03-26T08:35:48.745Z,25.02
2023-03-26T08:38:19.101Z,22.48
2023-03-26T08:40:58.989Z,22.95
2023-03-26T08:43:38.694Z,24.08
2023-03-26T08:46:15.838Z,14.15
2023-03-26T08:48:48.898Z,15.80
2023-03-26T08:51:22.157Z,15.63
2023-03-26T08:54:20.322Z,18.38
2023-03-26T08:57:09.273Z,17.90
2023-03-26T09:00:11.445Z,18.58
2023-03-26T09:03:15.882Z,17.55
2023-03-26T09:06:03.672Z,17.90
2023-03-26T09:09:08.247Z,15.25
2023-03-26T09:12:16.940Z,17.35
2023-03-26T09:15:18.659Z,16.55
2023-03-26T09:18:05.701Z,13.48
2023-03-26T09:20:41.988Z,23.98
2023-03-26T09:23:28.957Z,22.63
2023-03-26T09:26:16.761Z,21.50
2023-03-26T09:29:08.774Z,13.05
2023-03-26T09:32:00.918Z,15.95
2023-03-26T09:34:44.137Z,16.85
2023-03-26T09:37:18.768Z,12.82
2023-03-26T09:39:56.212Z,19.80
2023-03-26T09:42:37.720Z,25.52
2023-03-26T09:45:27.332Z,16.42
2023-03-26T09:48:16.978Z,20.27
2023-03-26T09:51:01.039Z,22.02
2023-03-26T09:53:47.353Z,19.65
2023-03-26T09:56:39.582Z,20.40
2023-03-26T09:59:53.886Z,15.30
2023-03-26T10:03:11.355Z,14.63
2023-03-26T10:05:59.945Z,18.88
2023-03-26T10:08:47.843Z,19.88
2023-03-26T10:11:19.346Z,13.95
2023-03-26T10:14:26.314Z,14.75
2023-03-26T10:16:56.883Z,17.88
2023-03-26T10:19:34.287Z,16.90
2023-03-26T10:22:10.771Z,18.23
2023-03-26T10:24:47.087Z,19.10
2023-03-26T10:27:24.810Z,14.70
2023-03-26T10:30:37.525Z,16.08
2023-03-26T10:33:25.072Z,20.50
2023-03-26T10:35:58.639Z,22.25
2023-03-26T10:38:47.429Z,28.15
2023-03-26T10:41:21.375Z,27.15
2023-03-26T10:44:05.272Z,24.42
2023-03-26T10:47:13.976Z,23.65
2023-03-26T10:52:18.852Z,25.15
2023-03-26T10:54:56.706Z,21.45
2023-03-26T10:57:56.270Z,23.25
2023-03-26T11:00:31.946Z,27.35
2023-03-26T11:03:28.560Z,19.95
2023-03-26T11:06:11.464Z,21.00
2023-03-26T11:08:44.836Z,28.70
2023-03-26T11:11:32.292Z,28.58
2023-03-26T11:14:31.837Z,27.27
2023-03-26T11:17:05.965Z,27.35
2023-03-26T11:19:41.153Z,29.98
2023-03-26T11:22:26.469Z,25.50
2023-03-26T11:25:15.439Z,28.10
2023-03-26T11:28:05.381Z,22.52
2023-03-26T11:30:56.072Z,27.05
2023-03-26T11:34:36.908Z,27.05
2023-03-26T11:36:23.310Z,32.33
2023-03-26T11:38:51.641Z,27.58
2023-03-26T11:41:28.113Z,24.42
2023-03-26T11:44:19.604Z,28.05
2023-03-26T11:46:52.344Z,29.75
2023-03-26T11:49:22.309Z,29.40
2023-03-26T11:51:49.926Z,31.80
2023-03-26T11:54:18.276Z,29.38
2023-03-26T11:57:05.709Z,30.90
2023-03-26T11:59:55.653Z,32.78
2023-03-26T12:02:38.069Z,35.78
2023-03-26T12:05:29.683Z,32.45
2023-03-26T12:08:02.405Z,32.63
2023-03-26T12:10:38.820Z,31.48
2023-03-26T12:13:39.289Z,31.80
2023-03-26T12:16:15.518Z,32.58
2023-03-26T12:18:44.826Z,37.28
2023-03-26T12:21:19.900Z,33.15
2023-03-26T12:23:58.978Z,40.47
2023-03-26T12:26:34.096Z,37.67
2023-03-26T12:29:11.918Z,34.88
2023-03-26T12:31:51.261Z,29.05
2023-03-26T12:34:29.788Z,26.48
2023-03-26T12:37:01.713Z,27.25
2023-03-26T12:40:09.016Z,29.42
2023-03-26T12:44:44.588Z,29.58
2023-03-26T12:45:28.261Z,23.95
2023-03-26T12:48:03.772Z,25.80
2023-03-26T12:50:42.865Z,30.25
2023-03-26T12:53:32.215Z,22.33
2023-03-26T12:56:06.116Z,20.40
2023-03-26T12:58:55.338Z,20.17
2023-03-26T13:01:35.349Z,19.20
2023-03-26T13:04:18.443Z,20.33
2023-03-26T13:07:01.788Z,19.20
2023-03-26T13:09:32.957Z,17.73
2023-03-26T13:12:38.340Z,25.23
2023-03-26T13:15:18.032Z,21.17
2023-03-26T13:18:04.532Z,21.17
2023-03-26T13:20:53.942Z,20.70
2023-03-26T13:23:38.957Z,18.58
2023-03-26T13:26:51.210Z,15.20
2023-03-26T13:29:37.037Z,13.85
2023-03-26T13:32:37.669Z,19.20
2023-03-26T13:35:14.722Z,21.10
2023-03-26T13:37:47.156Z,16.33
2023-03-26T13:40:40.697Z,14.40
2023-03-26T13:43:23.003Z,15.32
2023-03-26T13:46:08.743Z,13.63
2023-03-26T13:48:53.957Z,11.73
2023-03-26T13:51:45.000Z,15.40
2023-03-26T13:54:26.693Z,13.25
2023-03-26T13:57:20.590Z,12.65
2023-03-26T14:00:13.577Z,15.98
2023-03-26T14:02:44.039Z,12.50
2023-03-26T14:05:36.258Z,13.82
2023-03-26T14:08:32.651Z,12.20
2023-03-26T14:11:11.115Z,14.88
2023-03-26T14:13:54.444Z,13.48
2023-03-26T14:16:34.596Z,11.15
2023-03-26T14:19:39.684Z,15.02
2023-03-26T14:22:39.604Z,15.40
2023-03-26T14:25:24.800Z,16.95
2023-03-26T14:27:52.368Z,12.38
2023-03-26T14:30:48.437Z,14.10
2023-03-26T14:33:56.016Z,9.68
2023-03-26T14:36:46.958Z,11.80
2023-03-26T14:39:14.058Z,13.40
2023-03-26T14:41:50.741Z,12.85
2023-03-26T14:44:47.894Z,14.73
2023-03-26T14:47:21.839Z,13.55
2023-03-26T14:50:11.008Z,16.88
2023-03-26T14:52:52.352Z,14.60
2023-03-26T14:55:48.687Z,16.00
2023-03-26T14:58:50.950Z,12.63
2023-03-26T15:01:24.710Z,11.40
2023-03-26T15:04:31.745Z,14.60
2023-03-26T15:07:32.870Z,14.20
2023-03-26T15:10:24.765Z,15.38
2023-03-26T15:13:05.502Z,16.38
2023-03-26T15:16:03.804Z,13.32
2023-03-26T15:18:33.776Z,14.15
2023-03-26T15:21:43.571Z,18.98
2023-03-26T15:24:19.946Z,14.82
2023-03-26T15:26:56.954Z,16.02
2023-03-26T15:29:54.739Z,15.07
2023-03-26T15:32:41.154Z,13.02
2023-03-26T15:35:32.232Z,13.75
2023-03-26T15:38:30.399Z,13.75
2023-03-26T15:41:17.649Z,10.75
2023-03-26T15:44:23.924Z,11.38
2023-03-26T15:47:17.147Z,10.20
2023-03-26T15:50:19.793Z,13.10
2023-03-26T15:53:07.718Z,13.45
2023-03-26T15:56:20.097Z,12.48
2023-03-26T15:58:56.729Z,12.75
2023-03-26T16:02:14.200Z,9.57
2023-03-26T16:05:03.351Z,11.63
2023-03-26T16:08:04.549Z,9.68
2023-03-26T16:10:46.046Z,11.43
2023-03-26T16:13:42.863Z,9.43
2023-03-26T16:16:50.014Z,7.95
2023-03-26T16:19:20.844Z,9.00
2023-03-26T16:22:06.425Z,8.63
2023-03-26T16:24:40.081Z,11.93
2023-03-26T16:27:28.288Z,8.43
2023-03-26T16:30:01.856Z,9.40
2023-03-26T16:35:22.934Z,8.68
2023-03-26T16:38:05.165Z,8.48
2023-03-26T16:40:36.796Z,9.70
2023-03-26T16:43:40.388Z,9.70
2023-03-26T16:46:14.103Z,11.77
2023-03-26T16:49:35.053Z,7.43
2023-03-26T16:52:24.008Z,8.77
2023-03-26T16:55:07.582Z,8.82
2023-03-26T16:57:48.355Z,11.18
2023-03-26T17:00:23.648Z,8.27
2023-03-26T17:03:14.498Z,6.75
2023-03-26T17:05:57.107Z,7.60
2023-03-26T17:09:23.617Z,7.35
2023-03-26T17:12:07.859Z,7.32
2023-03-26T17:15:09.034Z,8.23
2023-03-26T17:17:49.373Z,7.47
2023-03-26T17:20:26.472Z,8.60
2023-03-26T17:23:38.435Z,7.30
2023-03-26T17:26:30.383Z,9.00
2023-03-26T17:29:07.707Z,6.70
2023-03-26T17:31:38.456Z,8.90
2023-03-26T17:34:47.010Z,6.32
2023-03-26T17:37:17.388Z,7.30
2023-03-26T17:39:46.432Z,7.00
2023-03-26T17:42:33.047Z,7.60
2023-03-26T17:45:02.597Z,5.85
2023-03-26T17:47:50.357Z,7.32
2023-03-26T17:50:30.954Z,6.63
2023-03-26T17:53:02.310Z,7.28
2023-03-26T17:55:37.378Z,7.47
2023-03-26T18:00:43.387Z,6.68
2023-03-26T18:03:34.418Z,6.65
2023-03-26T18:06:26.761Z,6.78
2023-03-26T18:09:34.196Z,5.68
2023-03-26T18:12:32.266Z,6.40
2023-03-26T18:15:15.808Z,6.93
2023-03-26T18:17:46.691Z,8.13
2023-03-26T18:20:28.468Z,5.30
2023-03-26T18:22:56.301Z,5.55
2023-03-26T18:25:36.949Z,5.75
2023-03-26T18:28:06.231Z,4.88
2023-03-26T18:30:47.079Z,5.10
2023-03-26T18:33:15.985Z,8.93
2023-03-26T18:35:50.326Z,6.20
2023-03-26T18:38:35.067Z,7.03
2023-03-26T18:41:06.060Z,5.72
2023-03-26T18:43:35.645Z,7.72
2023-03-26T18:46:14.822Z,6.07
2023-03-26T18:48:43.370Z,6.82
2023-03-26T18:51:11.203Z,7.35
2023-03-26T18:53:44.978Z,6.50
2023-03-26T18:56:20.415Z,7.97
2023-03-26T18:58:52.109Z,10.90
2023-03-26T19:01:25.934Z,7.13
2023-03-26T19:03:54.688Z,7.88
2023-03-26T19:06:23.490Z,6.70
2023-03-26T19:08:51.136Z,7.18
2023-03-26T19:11:19.081Z,7.25
2023-03-26T19:13:58.962Z,8.73
2023-03-26T19:16:33.781Z,7.05
2023-03-26T19:19:05.477Z,6.40
2023-03-26T19:21:34.741Z,8.55
2023-03-26T19:24:03.942Z,6.90
2023-03-26T19:26:31.974Z,7.10
2023-03-26T19:29:00.897Z,9.25
2023-03-26T19:31:39.806Z,7.75
2023-03-26T19:34:17.576Z,8.20
2023-03-26T19:36:57.511Z,9.32
2023-03-26T19:39:38.620Z,11.18
2023-03-26T19:42:07.662Z,9.45
2023-03-26T19:44:39.652Z,8.68
2023-03-26T19:47:16.771Z,8.75
2023-03-26T19:50:04.090Z,9.35
2023-03-26T19:52:38.586Z,9.68
2023-03-26T19:55:29.624Z,10.32
2023-03-26T19:57:56.774Z,10.77
2023-03-26T20:00:24.016Z,12.85
2023-03-26T20:02:51.513Z,10.95
2023-03-26T20:05:27.356Z,10.27
2023-03-26T20:08:13.326Z,11.85
2023-03-26T20:10:40.679Z,10.55
2023-03-26T20:13:17.876Z,12.30
2023-03-26T20:16:05.351Z,20.13
2023-03-26T20:18:34.879Z,15.90
2023-03-26T20:21:02.741Z,13.02
2023-03-26T20:23:29.851Z,11.88
2023-03-26T20:25:57.421Z,14.43
2023-03-26T20:28:24.747Z,15.63
2023-03-26T20:30:54.570Z,14.65
2023-03-26T20:33:25.779Z,14.35
2023-03-26T20:35:55.378Z,14.82
2023-03-26T20:38:39.096Z,12.95
2023-03-26T20:41:22.990Z,16.30
2023-03-26T20:43:52.272Z,16.95
2023-03-26T20:46:31.621Z,16.80
2023-03-26T20:48:59.948Z,17.02
2023-03-26T20:51:28.990Z,13.32
2023-03-26T20:53:56.637Z,15.38
2023-03-26T20:56:24.083Z,14.65
2023-03-26T20:59:09.685Z,16.40
2023-03-26T21:01:38.699Z,14.30
2023-03-26T21:04:07.191Z,18.15
2023-03-26T21:06:34.298Z,16.25
2023-03-26T21:09:01.956Z,12.48
2023-03-26T21:11:31.998Z,14.55
2023-03-26T21:14:09.590Z,19.55
2023-03-26T21:16:37.574Z,17.88
2023-03-26T21:19:05.883Z,18.15
2023-03-26T21:21:59.129Z,17.80
2023-03-26T21:24:45.960Z,15.43
2023-03-26T21:27:19.905Z,13.27
2023-03-26T21:29:47.857Z,13.63
2023-03-26T21:32:16.898Z,13.27
2023-03-26T21:34:55.730Z,7.47
2023-03-26T21:37:26.836Z,8.02
2023-03-26T21:39:54.230Z,7.90
2023-03-26T21:42:21.595Z,7.35
2023-03-26T21:44:49.111Z,9.80
2023-03-26T21:47:17.607Z,9.52
2023-03-26T21:49:45.942Z,12.70
2023-03-26T21:52:15.314Z,13.88
2023-03-26T21:54:43.444Z,12.20
2023-03-26T21:57:29.325Z,15.10
2023-03-26T22:00:15.178Z,13.55
2023-03-26T22:03:06.975Z,11.82
2023-03-26T22:05:36.999Z,15.48
2023-03-26T22:08:06.355Z,15.25
2023-03-26T22:10:33.627Z,18.75
2023-03-26T22:13:00.795Z,15.85
2023-03-26T22:15:31.292Z,15.43
2023-03-26T22:18:03.861Z,12.13
2023-03-26T22:20:31.235Z,15.52
2023-03-26T22:22:59.285Z,11.20
2023-03-26T22:25:28.016Z,9.98
2023-03-26T22:27:55.733Z,16.77
2023-03-26T22:30:23.035Z,11.02
2023-03-26T22:32:50.465Z,11.38
2023-03-26T22:35:17.986Z,11.63
2023-03-26T22:37:45.462Z,10.57
2023-03-26T22:40:13.931Z,12.40
2023-03-26T22:42:42.045Z,10.18
2023-03-26T22:45:12.195Z,8.07
2023-03-26T22:47:40.308Z,12.00
2023-03-26T22:50:08.986Z,12.02
2023-03-26T22:52:37.035Z,10.43
2023-03-26T22:55:05.479Z,12.80
2023-03-26T22:57:32.610Z,9.73
2023-03-26T23:00:12.417Z,8.35
2023-03-26T23:02:41.239Z,8.68
2023-03-26T23:05:08.759Z,7.47
2023-03-26T23:07:35.838Z,8.75
2023-03-26T23:10:05.048Z,7.53
2023-03-26T23:12:32.412Z,8.45
2023-03-26T23:14:59.530Z,5.57
2023-03-26T23:17:27.381Z,7.60
2023-03-26T23:19:55.167Z,8.98
2023-03-26T23:22:22.446Z,6.47
2023-03-26T23:24:49.643Z,7.72
2023-03-26T23:27:16.722Z,6.47
2023-03-26T23:29:49.834Z,7.50
2023-03-26T23:32:24.078Z,7.63
2023-03-26T23:34:52.714Z,7.68
2023-03-26T23:37:23.464Z,5.18
2023-03-26T23:39:53.974Z,8.63
2023-03-26T23:42:28.618Z,5.95
2023-03-26T23:44:57.924Z,5.82
2023-03-26T23:47:25.378Z,7.97
2023-03-26T23:49:52.576Z,8.75
2023-03-26T23:52:20.153Z,8.95
2023-03-26T23:54:47.675Z,9.18
2023-03-26T23:57:14.976Z,15.43
2023-03-26T23:59:42.099Z,16.67
